Time;durP1;ratioP1;P1;durP2;ratioP2;P2;SDS_P1;SDS_P2;PMS_P1;PMS_P2;Temp;Humidity;BMP_temperature;BMP_pressure;BME280_temperature;BME280_humidity;BME280_pressure;Samples;Min_cycle;Max_cycle;Signal;HPM_P1;HPM_P2
2023/12/08 00:01:14;;;;;;;35.45;21.98;;;1.80;99.90;;;;;;5055529;28;20068;-63
2023/12/08 00:03:39;;;;;;;34.30;22.75;;;1.80;99.90;;;;;;5055089;28;20432;-64
2023/12/08 00:06:07;;;;;;;31.05;21.38;;;1.80;99.90;;;;;;5054776;28;20025;-65
2023/12/08 00:08:32;;;;;;;38.88;23.38;;;1.70;99.90;;;;;;5055216;28;20029;-64
2023/12/08 00:10:58;;;;;;;34.90;21.92;;;1.70;99.90;;;;;;5054443;28;20025;-65
2023/12/08 00:13:24;;;;;;;34.90;21.88;;;1.70;99.90;;;;;;5055047;28;20040;-63
2023/12/08 00:15:49;;;;;;;37.15;21.95;;;1.60;99.90;;;;;;5054457;28;20381;-65
2023/12/08 00:18:15;;;;;;;34.45;22.42;;;1.60;99.90;;;;;;5055065;28;20059;-63
2023/12/08 00:20:41;;;;;;;34.70;22.25;;;1.60;99.90;;;;;;5054713;28;20108;-63
2023/12/08 00:23:06;;;;;;;38.28;24.05;;;1.60;99.90;;;;;;5054114;28;20044;-64
2023/12/08 00:25:32;;;;;;;37.97;22.67;;;1.60;99.90;;;;;;5054811;28;20100;-63
2023/12/08 00:27:58;;;;;;;33.42;22.60;;;1.60;99.90;;;;;;5054432;28;20525;-63
2023/12/08 00:30:24;;;;;;;35.67;22.67;;;1.60;99.90;;;;;;5054423;28;20381;-63
2023/12/08 00:32:49;;;;;;;37.58;23.00;;;1.50;99.90;;;;;;5054770;28;20458;-64
2023/12/08 00:35:15;;;;;;;37.22;23.10;;;1.50;99.90;;;;;;5054050;28;20061;-64
2023/12/08 00:37:41;;;;;;;36.17;23.15;;;1.60;99.90;;;;;;5054323;28;20028;-64
2023/12/08 00:40:11;;;;;;;39.53;23.20;;;1.50;99.90;;;;;;5053909;28;20064;-64
2023/12/08 00:42:36;;;;;;;35.92;23.00;;;1.60;99.90;;;;;;5054485;28;20124;-64
2023/12/08 00:45:03;;;;;;;37.97;23.80;;;1.60;99.90;;;;;;5054149;28;20104;-64
2023/12/08 00:47:29;;;;;;;38.30;22.42;;;1.60;99.90;;;;;;5054615;28;20095;-64
2023/12/08 00:49:54;;;;;;;41.10;23.67;;;1.60;99.90;;;;;;5054193;28;20033;-64
2023/12/08 00:52:20;;;;;;;38.53;24.08;;;1.60;99.90;;;;;;5054302;28;20099;-64
2023/12/08 00:54:46;;;;;;;36.55;22.83;;;1.60;99.90;;;;;;5054368;28;20032;-64
2023/12/08 00:57:11;;;;;;;36.80;23.02;;;1.60;99.90;;;;;;5053645;28;20247;-64
2023/12/08 00:59:37;;;;;;;35.75;21.77;;;1.50;99.90;;;;;;5053971;28;20082;-64
2023/12/08 01:02:03;;;;;;;35.80;22.40;;;1.50;99.90;;;;;;5053685;28;20081;-64
2023/12/08 01:04:29;;;;;;;33.90;22.00;;;1.50;99.90;;;;;;5052842;28;20033;-64
2023/12/08 01:06:54;;;;;;;36.53;22.98;;;1.50;99.90;;;;;;5053768;28;20104;-64
2023/12/08 01:09:20;;;;;;;36.22;22.02;;;1.50;99.90;;;;;;5053466;28;20025;-64
2023/12/08 01:11:45;;;;;;;32.85;21.60;;;1.40;99.90;;;;;;5053998;28;20025;-64
2023/12/08 01:14:11;;;;;;;35.35;22.13;;;1.40;99.90;;;;;;5053883;28;20453;-64
2023/12/08 01:16:43;;;;;;;35.80;24.00;;;1.40;99.90;;;;;;5054109;28;20025;-64
2023/12/08 01:19:10;;;;;;;40.90;22.50;;;1.40;99.90;;;;;;5052697;28;20045;-64
2023/12/08 01:21:37;;;;;;;40.10;23.08;;;1.40;99.90;;;;;;5053553;28;20466;-64
2023/12/08 01:24:03;;;;;;;34.85;22.63;;;1.40;99.90;;;;;;5053331;28;20484;-64
2023/12/08 01:26:29;;;;;;;36.88;22.88;;;1.40;99.90;;;;;;5053685;28;20031;-64
2023/12/08 01:28:55;;;;;;;36.00;22.13;;;1.40;99.90;;;;;;5053300;28;20424;-72
2023/12/08 01:31:21;;;;;;;35.72;22.40;;;1.30;99.90;;;;;;5053882;28;20025;-64
2023/12/08 01:33:47;;;;;;;33.42;21.80;;;1.30;99.90;;;;;;5053408;28;20116;-64
2023/12/08 01:36:12;;;;;;;39.38;22.95;;;1.30;99.90;;;;;;5053170;28;20103;-64
2023/12/08 01:38:38;;;;;;;37.53;22.23;;;1.20;99.90;;;;;;5053662;28;20028;-64
2023/12/08 01:41:04;;;;;;;36.65;22.92;;;1.20;99.90;;;;;;5053059;28;20343;-64
2023/12/08 01:43:30;;;;;;;35.55;22.13;;;1.10;99.90;;;;;;5053158;28;20033;-64
2023/12/08 01:45:58;;;;;;;38.05;22.58;;;1.10;99.90;;;;;;5053202;28;20111;-72
2023/12/08 01:48:24;;;;;;;33.42;21.98;;;1.10;99.90;;;;;;5052055;28;20090;-64
2023/12/08 01:50:50;;;;;;;37.28;22.35;;;1.00;99.90;;;;;;5053409;28;20078;-64
2023/12/08 01:53:16;;;;;;;36.25;22.05;;;0.90;99.90;;;;;;5052848;28;20098;-64
2023/12/08 01:55:42;;;;;;;34.33;21.40;;;0.90;99.90;;;;;;5051725;28;20028;-64
2023/12/08 01:58:08;;;;;;;35.00;21.55;;;0.90;99.90;;;;;;5052791;28;20377;-64
2023/12/08 02:00:35;;;;;;;34.83;20.92;;;0.90;99.90;;;;;;5053284;28;20036;-64
2023/12/08 02:03:01;;;;;;;35.88;21.35;;;0.90;99.90;;;;;;5052710;28;20108;-64
2023/12/08 02:05:29;;;;;;;36.83;22.15;;;0.90;99.90;;;;;;5053024;28;20033;-64
2023/12/08 02:07:54;;;;;;;35.30;21.98;;;0.80;99.90;;;;;;5052940;28;20155;-64
2023/12/08 02:10:20;;;;;;;32.10;20.42;;;0.80;99.90;;;;;;5052950;28;20115;-64
2023/12/08 02:12:46;;;;;;;33.67;20.95;;;0.80;99.90;;;;;;5052877;28;20033;-64
2023/12/08 02:15:12;;;;;;;32.22;20.35;;;0.80;99.90;;;;;;5052719;28;20052;-64
2023/12/08 02:17:38;;;;;;;36.75;22.55;;;0.80;99.90;;;;;;5052798;28;20029;-64
2023/12/08 02:20:10;;;;;;;34.53;20.67;;;0.70;99.90;;;;;;5052158;28;20497;-64
2023/12/08 02:22:36;;;;;;;31.58;20.15;;;0.70;99.90;;;;;;5051766;28;20032;-64
2023/12/08 02:25:02;;;;;;;33.45;19.98;;;0.70;99.90;;;;;;5052446;28;20025;-64
2023/12/08 02:27:29;;;;;;;30.90;19.77;;;0.70;99.90;;;;;;5052884;28;20025;-64
2023/12/08 02:29:55;;;;;;;33.00;19.67;;;0.70;99.90;;;;;;5054061;28;20366;-64
2023/12/08 02:32:34;;;;;;;33.17;20.13;;;0.70;99.90;;;;;;5053818;28;20126;-64
2023/12/08 02:35:03;;;;;;;32.78;20.50;;;0.60;99.90;;;;;;5057463;28;20051;-71
2023/12/08 02:37:34;;;;;;;32.35;20.67;;;0.60;99.90;;;;;;5055323;28;20125;-64
2023/12/08 02:40:00;;;;;;;35.72;20.50;;;0.60;99.90;;;;;;5052391;28;20104;-71
2023/12/08 02:42:26;;;;;;;33.45;20.55;;;0.60;99.90;;;;;;5052097;28;20460;-64
2023/12/08 02:44:52;;;;;;;36.33;19.73;;;0.60;99.90;;;;;;5052706;28;20116;-63
2023/12/08 02:47:17;;;;;;;32.80;20.73;;;0.60;99.90;;;;;;5052048;28;20025;-63
2023/12/08 02:49:43;;;;;;;29.02;19.75;;;0.60;99.90;;;;;;5052435;28;20459;-63
2023/12/08 02:52:09;;;;;;;29.90;19.42;;;0.60;99.90;;;;;;5051820;28;20075;-63
2023/12/08 02:54:34;;;;;;;32.08;19.67;;;0.60;99.90;;;;;;5052368;28;20140;-63
2023/12/08 02:57:00;;;;;;;29.33;18.98;;;0.50;99.90;;;;;;5052202;28;20105;-64
2023/12/08 02:59:26;;;;;;;29.73;18.98;;;0.60;99.90;;;;;;5052109;28;20032;-64
2023/12/08 03:01:51;;;;;;;31.58;20.52;;;0.50;99.90;;;;;;5052369;28;20056;-63
2023/12/08 03:04:17;;;;;;;32.97;21.08;;;0.50;99.90;;;;;;5051632;28;20036;-63
2023/12/08 03:06:43;;;;;;;33.25;19.98;;;0.50;99.90;;;;;;5052630;28;20492;-64
2023/12/08 03:09:09;;;;;;;30.25;19.98;;;0.50;99.90;;;;;;5051999;28;20025;-64
2023/12/08 03:11:35;;;;;;;35.13;20.98;;;0.50;99.90;;;;;;5051981;28;20198;-63
2023/12/08 03:14:00;;;;;;;32.15;19.15;;;0.40;99.90;;;;;;5052333;28;20385;-63
2023/12/08 03:16:26;;;;;;;29.55;19.45;;;0.40;99.90;;;;;;5051543;28;20482;-63
2023/12/08 03:18:51;;;;;;;30.40;17.77;;;0.30;99.90;;;;;;5051985;28;20036;-64
2023/12/08 03:21:24;;;;;;;27.00;16.70;;;0.40;99.90;;;;;;5051792;28;20029;-63
2023/12/08 03:23:50;;;;;;;24.17;16.30;;;0.40;99.90;;;;;;5051193;28;20120;-65
2023/12/08 03:26:17;;;;;;;24.05;16.08;;;0.40;99.90;;;;;;5051719;28;20025;-64
2023/12/08 03:28:43;;;;;;;25.98;16.38;;;0.30;99.90;;;;;;5052171;28;20029;-64
2023/12/08 03:31:20;;;;;;;22.13;15.23;;;0.20;99.90;;;;;;5051686;28;20168;-65
2023/12/08 03:33:46;;;;;;;25.60;16.63;;;0.20;99.90;;;;;;5054708;28;20028;-64
2023/12/08 03:36:12;;;;;;;26.13;15.82;;;0.10;99.90;;;;;;5055483;28;20485;-64
2023/12/08 03:38:37;;;;;;;26.40;15.65;;;0.00;99.90;;;;;;5055811;28;20017;-64
2023/12/08 03:41:03;;;;;;;26.70;14.90;;;-0.10;99.90;;;;;;5055435;28;20025;-65
2023/12/08 03:43:28;;;;;;;26.40;15.80;;;-0.10;99.90;;;;;;5054859;28;20115;-64
2023/12/08 03:45:54;;;;;;;25.33;16.25;;;-0.20;99.90;;;;;;5055615;28;20029;-65
2023/12/08 03:48:20;;;;;;;24.38;16.63;;;-0.20;99.90;;;;;;5055202;28;20036;-63
2023/12/08 03:50:45;;;;;;;21.70;14.43;;;-0.20;99.90;;;;;;5055327;28;20489;-63
2023/12/08 03:53:11;;;;;;;21.63;13.90;;;-0.30;99.90;;;;;;5053864;28;20033;-63
2023/12/08 03:55:37;;;;;;;20.63;14.05;;;-0.30;99.90;;;;;;5055587;28;20058;-64
2023/12/08 03:58:02;;;;;;;24.40;14.40;;;-0.40;99.90;;;;;;5055416;28;20120;-64
2023/12/08 04:00:28;;;;;;;23.70;13.93;;;-0.40;99.90;;;;;;5054933;28;20155;-64
2023/12/08 04:02:54;;;;;;;21.13;13.63;;;-0.40;99.90;;;;;;5054837;28;20045;-64
2023/12/08 04:05:19;;;;;;;24.90;14.10;;;-0.40;99.90;;;;;;5053654;28;20524;-64
2023/12/08 04:07:45;;;;;;;24.35;15.25;;;-0.40;99.90;;;;;;5055480;28;20028;-64
2023/12/08 04:10:10;;;;;;;23.02;14.30;;;-0.40;99.90;;;;;;5054498;28;20021;-64
2023/12/08 04:12:36;;;;;;;21.80;14.18;;;-0.40;99.90;;;;;;5055358;28;20029;-64
2023/12/08 04:15:02;;;;;;;22.23;13.85;;;-0.40;99.90;;;;;;5055103;28;20074;-64
2023/12/08 04:17:27;;;;;;;21.13;14.55;;;-0.40;99.90;;;;;;5054676;28;20059;-64
2023/12/08 04:19:53;;;;;;;23.85;14.80;;;-0.40;99.90;;;;;;5054675;28;20032;-64
2023/12/08 04:22:18;;;;;;;25.13;15.23;;;-0.30;99.90;;;;;;5054716;28;20067;-64
2023/12/08 04:24:44;;;;;;;23.00;14.40;;;-0.30;99.90;;;;;;5055152;28;20032;-64
2023/12/08 04:27:10;;;;;;;25.65;15.07;;;-0.30;99.90;;;;;;5053973;28;20044;-65
2023/12/08 04:29:35;;;;;;;25.52;16.58;;;-0.20;99.90;;;;;;5055210;28;20108;-63
2023/12/08 04:32:01;;;;;;;29.23;17.02;;;-0.20;99.90;;;;;;5053730;28;20074;-63
2023/12/08 04:34:27;;;;;;;28.23;16.67;;;-0.20;99.90;;;;;;5054314;28;20104;-64
2023/12/08 04:36:52;;;;;;;32.22;18.67;;;-0.10;99.90;;;;;;5054976;28;20028;-63
2023/12/08 04:39:18;;;;;;;28.60;17.67;;;-0.10;99.90;;;;;;5054305;28;20462;-64
2023/12/08 04:41:43;;;;;;;28.83;18.88;;;0.00;99.90;;;;;;5054698;28;20021;-64
2023/12/08 04:44:09;;;;;;;29.02;19.23;;;0.00;99.90;;;;;;5053134;28;20378;-67
2023/12/08 04:46:35;;;;;;;36.70;20.48;;;0.00;99.90;;;;;;5054197;28;20025;-63
2023/12/08 04:49:00;;;;;;;36.90;20.77;;;0.10;99.90;;;;;;5054735;28;20382;-64
2023/12/08 04:51:26;;;;;;;34.67;20.08;;;0.10;99.90;;;;;;5054063;28;20433;-66
2023/12/08 04:53:51;;;;;;;35.85;21.50;;;0.10;99.90;;;;;;5054360;28;20104;-64
2023/12/08 04:56:17;;;;;;;34.67;22.20;;;0.10;99.90;;;;;;5053724;28;20029;-63
2023/12/08 04:58:43;;;;;;;37.83;22.13;;;0.10;99.90;;;;;;5053969;28;20024;-63
2023/12/08 05:01:13;;;;;;;33.55;21.60;;;0.10;99.90;;;;;;5053929;28;20025;-63
2023/12/08 05:03:38;;;;;;;32.33;21.60;;;0.20;99.90;;;;;;5054290;28;20056;-64
2023/12/08 05:06:04;;;;;;;34.85;21.48;;;0.20;99.90;;;;;;5054407;28;20025;-64
2023/12/08 05:08:30;;;;;;;33.88;20.58;;;0.30;99.90;;;;;;5053506;28;20379;-63
2023/12/08 05:10:55;;;;;;;33.53;19.92;;;0.30;99.90;;;;;;5054049;28;20033;-64
2023/12/08 05:13:21;;;;;;;30.88;19.55;;;0.20;99.90;;;;;;5053693;28;20474;-63
2023/12/08 05:15:46;;;;;;;31.45;20.27;;;0.10;99.90;;;;;;5052674;28;20075;-63
2023/12/08 05:18:12;;;;;;;33.75;20.55;;;0.00;99.90;;;;;;5053415;28;20462;-65
2023/12/08 05:20:37;;;;;;;33.15;21.30;;;0.00;99.90;;;;;;5053788;28;20028;-64
2023/12/08 05:23:03;;;;;;;36.00;20.27;;;-0.10;99.90;;;;;;5053538;28;20111;-64
2023/12/08 05:25:29;;;;;;;34.47;20.80;;;-0.10;99.90;;;;;;5053116;28;20028;-64
2023/12/08 05:27:54;;;;;;;33.65;20.73;;;-0.20;99.90;;;;;;5053794;28;20483;-64
2023/12/08 05:30:20;;;;;;;38.17;21.13;;;-0.20;99.90;;;;;;5053367;28;20032;-65
2023/12/08 05:32:45;;;;;;;36.90;21.80;;;-0.20;99.90;;;;;;5052955;28;20064;-65
2023/12/08 05:35:11;;;;;;;33.17;22.25;;;-0.10;99.90;;;;;;5052403;28;20029;-64
2023/12/08 05:37:37;;;;;;;33.00;19.40;;;-0.10;99.90;;;;;;5053051;28;20458;-64
2023/12/08 05:40:03;;;;;;;34.92;21.88;;;-0.10;99.90;;;;;;5053477;28;20074;-64
2023/12/08 05:42:29;;;;;;;32.13;20.33;;;-0.10;99.90;;;;;;5052968;28;20037;-64
2023/12/08 05:44:54;;;;;;;37.35;22.90;;;-0.10;99.90;;;;;;5053479;28;20136;-64
2023/12/08 05:47:20;;;;;;;38.55;24.15;;;-0.10;99.90;;;;;;5053015;28;20025;-65
2023/12/08 05:49:45;;;;;;;38.78;24.27;;;0.00;99.90;;;;;;5053401;28;20381;-64
2023/12/08 05:52:11;;;;;;;38.58;22.75;;;0.00;99.90;;;;;;5053313;28;20104;-64
2023/12/08 05:54:37;;;;;;;38.38;22.92;;;0.10;99.90;;;;;;5052898;28;20031;-64
2023/12/08 05:57:02;;;;;;;40.47;24.13;;;0.10;99.90;;;;;;5052833;28;20099;-64
2023/12/08 05:59:28;;;;;;;36.70;23.55;;;0.20;99.90;;;;;;5052371;28;20075;-65
2023/12/08 06:01:54;;;;;;;40.13;24.70;;;0.20;99.90;;;;;;5053309;28;20053;-64
2023/12/08 06:04:19;;;;;;;37.83;23.83;;;0.20;99.90;;;;;;5052725;28;20462;-65
2023/12/08 06:06:45;;;;;;;36.83;24.35;;;0.20;99.90;;;;;;5053173;28;20029;-64
2023/12/08 06:09:10;;;;;;;39.90;24.58;;;0.30;99.90;;;;;;5052715;28;20067;-64
2023/12/08 06:11:37;;;;;;;41.00;24.40;;;0.30;99.90;;;;;;5052584;28;20036;-64
2023/12/08 06:14:05;;;;;;;41.40;25.35;;;0.20;99.90;;;;;;5052935;28;20102;-64
2023/12/08 06:16:30;;;;;;;39.33;25.00;;;0.20;99.90;;;;;;5052505;28;20017;-63
2023/12/08 06:18:56;;;;;;;39.58;24.65;;;0.20;99.90;;;;;;5053066;28;20462;-63
2023/12/08 06:21:22;;;;;;;37.70;24.52;;;0.20;99.90;;;;;;5052459;28;20060;-64
2023/12/08 06:23:48;;;;;;;37.95;23.55;;;0.10;99.90;;;;;;5052860;28;20033;-64
2023/12/08 06:26:13;;;;;;;37.38;23.35;;;0.20;99.90;;;;;;5052839;28;20031;-65
2023/12/08 06:28:40;;;;;;;37.10;22.95;;;0.20;99.90;;;;;;5051699;28;20021;-64
2023/12/08 06:31:08;;;;;;;38.70;22.67;;;0.20;99.90;;;;;;5052749;28;20382;-65
2023/12/08 06:33:34;;;;;;;36.67;22.88;;;0.10;99.90;;;;;;5052358;28;20543;-64
2023/12/08 06:35:59;;;;;;;36.33;22.70;;;0.20;99.90;;;;;;5052828;28;20029;-65
2023/12/08 06:38:25;;;;;;;39.05;22.80;;;0.20;99.90;;;;;;5052350;28;20083;-64
2023/12/08 06:40:50;;;;;;;35.22;22.77;;;0.20;99.90;;;;;;5052721;28;20056;-64
2023/12/08 06:43:16;;;;;;;37.55;23.38;;;0.20;99.90;;;;;;5052293;28;20120;-65
2023/12/08 06:45:41;;;;;;;37.20;23.73;;;0.20;99.90;;;;;;5052231;28;20029;-64
2023/12/08 06:48:08;;;;;;;40.65;24.48;;;0.20;99.90;;;;;;5052570;28;20143;-65
2023/12/08 06:50:34;;;;;;;37.78;24.33;;;0.20;99.90;;;;;;5052143;28;20469;-64
2023/12/08 06:52:59;;;;;;;34.63;22.38;;;0.20;99.90;;;;;;5052459;28;20061;-65
2023/12/08 06:55:25;;;;;;;35.05;22.65;;;0.20;99.90;;;;;;5051985;28;20021;-65
2023/12/08 06:57:51;;;;;;;33.63;22.27;;;0.20;99.90;;;;;;5052741;28;20025;-64
2023/12/08 07:00:17;;;;;;;33.97;22.80;;;0.20;99.90;;;;;;5052398;28;20025;-64
2023/12/08 07:02:44;;;;;;;37.30;23.40;;;0.10;99.90;;;;;;5052529;28;20053;-65
2023/12/08 07:05:10;;;;;;;37.53;23.38;;;0.20;99.90;;;;;;5053017;28;20025;-64
2023/12/08 07:07:36;;;;;;;35.47;23.27;;;0.20;99.90;;;;;;5052938;28;20025;-64
2023/12/08 07:10:01;;;;;;;31.73;21.42;;;0.20;99.90;;;;;;5056656;28;20055;-65
2023/12/08 07:12:27;;;;;;;34.47;22.27;;;0.20;99.90;;;;;;5055963;28;20029;-65
2023/12/08 07:14:52;;;;;;;39.33;21.98;;;0.20;99.90;;;;;;5056160;28;20124;-64
2023/12/08 07:17:18;;;;;;;32.17;21.00;;;0.20;99.90;;;;;;5056351;28;20096;-64
2023/12/08 07:19:44;;;;;;;32.40;21.00;;;0.20;99.90;;;;;;5055795;28;20025;-64
2023/12/08 07:22:10;;;;;;;36.35;21.50;;;0.20;99.90;;;;;;5056046;28;20025;-64
2023/12/08 07:24:39;;;;;;;35.25;21.63;;;0.30;99.90;;;;;;5055408;28;20048;-64
2023/12/08 07:27:04;;;;;;;33.63;21.70;;;0.20;99.90;;;;;;5056259;28;20091;-64
2023/12/08 07:29:30;;;;;;;34.65;22.15;;;0.30;99.90;;;;;;5054261;28;20033;-64
2023/12/08 07:31:56;;;;;;;35.47;21.40;;;0.30;99.90;;;;;;5055330;28;20045;-64
2023/12/08 07:34:22;;;;;;;35.53;22.30;;;0.30;99.90;;;;;;5055638;28;20083;-70
2023/12/08 07:36:48;;;;;;;36.25;22.00;;;0.30;99.90;;;;;;5056001;28;20017;-63
2023/12/08 07:39:14;;;;;;;34.53;21.33;;;0.40;99.90;;;;;;5055876;28;20021;-64
2023/12/08 07:41:40;;;;;;;36.63;22.52;;;0.40;99.90;;;;;;5055341;28;20449;-64
2023/12/08 07:44:05;;;;;;;36.40;23.08;;;0.40;99.90;;;;;;5055733;28;20458;-63
2023/12/08 07:46:31;;;;;;;33.70;21.73;;;0.40;99.90;;;;;;5055161;28;20044;-63
2023/12/08 07:48:57;;;;;;;35.53;21.83;;;0.40;99.90;;;;;;5055469;28;20560;-64
2023/12/08 07:51:23;;;;;;;32.20;20.73;;;0.40;99.90;;;;;;5054832;28;20020;-65
2023/12/08 07:53:49;;;;;;;35.95;22.45;;;0.40;99.90;;;;;;5055486;28;20040;-63
2023/12/08 07:56:14;;;;;;;34.70;21.17;;;0.50;99.90;;;;;;5055169;28;20485;-64
2023/12/08 07:58:40;;;;;;;34.88;21.20;;;0.50;99.90;;;;;;5054639;28;20454;-64
2023/12/08 08:01:06;;;;;;;32.05;21.23;;;0.50;99.90;;;;;;5055148;28;20025;-65
2023/12/08 08:03:31;;;;;;;35.28;20.98;;;0.50;99.90;;;;;;5054924;28;20091;-64
2023/12/08 08:05:57;;;;;;;30.10;20.17;;;0.60;99.90;;;;;;5055292;28;20032;-63
2023/12/08 08:08:23;;;;;;;29.20;19.33;;;0.60;99.90;;;;;;5055005;28;20075;-65
2023/12/08 08:10:49;;;;;;;30.40;19.83;;;0.60;99.90;;;;;;5055290;28;20025;-64
2023/12/08 08:13:15;;;;;;;32.25;20.30;;;0.60;99.90;;;;;;5055340;28;20037;-64
2023/12/08 08:15:40;;;;;;;35.40;19.48;;;0.70;99.90;;;;;;5054655;28;20503;-63
2023/12/08 08:18:06;;;;;;;28.23;19.13;;;0.70;99.90;;;;;;5055299;28;20104;-64
2023/12/08 08:20:32;;;;;;;29.27;18.83;;;0.70;99.90;;;;;;5053115;28;20112;-63
2023/12/08 08:22:57;;;;;;;32.33;19.73;;;0.70;99.90;;;;;;5055145;28;20458;-65
2023/12/08 08:25:24;;;;;;;29.33;18.85;;;0.70;99.90;;;;;;5054235;28;20367;-64
2023/12/08 08:27:53;;;;;;;29.83;19.02;;;0.80;99.90;;;;;;5054857;28;20048;-64
2023/12/08 08:30:19;;;;;;;31.40;20.05;;;0.80;99.90;;;;;;5054915;28;20028;-64
2023/12/08 08:32:44;;;;;;;26.98;18.55;;;0.80;99.90;;;;;;5054881;28;20114;-64
2023/12/08 08:35:10;;;;;;;28.65;19.42;;;0.90;99.90;;;;;;5055086;28;20057;-64
2023/12/08 08:37:36;;;;;;;28.77;17.45;;;0.90;99.90;;;;;;5054042;28;20118;-64
2023/12/08 08:40:02;;;;;;;28.00;18.08;;;0.90;99.90;;;;;;5054860;28;20021;-65
2023/12/08 08:42:28;;;;;;;26.40;17.77;;;0.90;99.90;;;;;;5054198;28;20107;-64
2023/12/08 08:44:53;;;;;;;25.40;17.27;;;1.00;99.90;;;;;;5054383;28;20130;-64
2023/12/08 08:47:19;;;;;;;27.52;16.85;;;1.00;99.90;;;;;;5054640;28;20067;-64
2023/12/08 08:49:45;;;;;;;25.55;17.15;;;1.00;99.90;;;;;;5053938;28;20113;-65
2023/12/08 08:52:11;;;;;;;26.40;18.08;;;1.00;99.90;;;;;;5054526;28;20459;-64
2023/12/08 08:54:37;;;;;;;24.52;17.20;;;1.10;99.90;;;;;;5054043;28;20048;-64
2023/12/08 08:57:04;;;;;;;26.02;16.55;;;1.10;99.90;;;;;;5054241;28;20518;-64
2023/12/08 08:59:30;;;;;;;25.08;16.90;;;1.20;99.90;;;;;;5054135;28;20017;-65
2023/12/08 09:01:56;;;;;;;26.75;17.10;;;1.20;99.90;;;;;;5054420;28;20060;-64
2023/12/08 09:04:22;;;;;;;24.45;17.15;;;1.20;99.90;;;;;;5054320;28;20040;-64
2023/12/08 09:06:48;;;;;;;29.10;17.35;;;1.30;99.90;;;;;;5053892;28;20686;-65
2023/12/08 09:09:13;;;;;;;27.30;17.65;;;1.30;99.90;;;;;;5053994;28;20074;-64
2023/12/08 09:11:39;;;;;;;23.58;16.15;;;1.30;99.90;;;;;;5053816;28;20029;-63
2023/12/08 09:14:04;;;;;;;25.10;16.17;;;1.30;99.90;;;;;;5054222;28;20033;-64
2023/12/08 09:16:30;;;;;;;24.40;15.70;;;1.40;99.90;;;;;;5053419;28;20029;-66
2023/12/08 09:18:56;;;;;;;23.10;15.35;;;1.40;99.90;;;;;;5054300;28;20029;-64
2023/12/08 09:21:21;;;;;;;21.60;15.40;;;1.50;99.90;;;;;;5052743;28;20029;-63
2023/12/08 09:23:47;;;;;;;24.13;16.05;;;1.60;99.90;;;;;;5053300;28;20491;-63
2023/12/08 09:26:13;;;;;;;24.98;16.25;;;1.60;99.90;;;;;;5053153;28;20025;-63
2023/12/08 09:28:38;;;;;;;23.75;15.75;;;1.70;99.90;;;;;;5053051;28;20035;-64
2023/12/08 09:31:04;;;;;;;22.48;15.20;;;1.70;99.90;;;;;;5053004;28;20051;-63
2023/12/08 09:33:30;;;;;;;20.08;14.57;;;1.80;99.90;;;;;;5053525;28;20078;-73
2023/12/08 09:35:57;;;;;;;22.17;14.98;;;1.80;99.90;;;;;;5053567;28;20047;-63
2023/12/08 09:38:23;;;;;;;25.35;15.63;;;1.80;99.90;;;;;;5053568;28;20083;-63
2023/12/08 09:40:49;;;;;;;24.15;14.70;;;1.90;99.90;;;;;;5052960;28;20021;-63
2023/12/08 09:43:20;;;;;;;22.77;15.73;;;1.90;99.90;;;;;;5052173;28;20116;-64
2023/12/08 09:45:46;;;;;;;22.52;15.82;;;2.00;99.90;;;;;;5052942;28;20413;-63
2023/12/08 09:48:12;;;;;;;25.38;16.13;;;2.00;99.90;;;;;;5053288;28;20040;-63
2023/12/08 09:50:39;;;;;;;22.33;15.27;;;2.10;99.90;;;;;;5052960;28;20029;-63
2023/12/08 09:53:06;;;;;;;21.92;15.13;;;2.10;99.90;;;;;;5053079;28;20036;-63
2023/12/08 09:55:33;;;;;;;23.95;15.93;;;2.10;99.90;;;;;;5052644;28;20104;-66
2023/12/08 09:58:01;;;;;;;22.60;16.10;;;2.20;99.90;;;;;;5053110;28;20025;-63
2023/12/08 10:00:30;;;;;;;23.23;15.70;;;2.30;99.90;;;;;;5052941;28;20029;-63
2023/12/08 10:02:56;;;;;;;22.63;16.45;;;2.40;99.90;;;;;;5052994;28;20103;-64
2023/12/08 10:05:22;;;;;;;23.60;15.52;;;2.50;99.90;;;;;;5052835;28;20033;-63
2023/12/08 10:07:50;;;;;;;23.15;15.27;;;2.60;99.90;;;;;;5052646;28;20028;-63
2023/12/08 10:10:16;;;;;;;22.88;16.10;;;2.70;99.90;;;;;;5052980;28;20377;-63
2023/12/08 10:12:41;;;;;;;24.55;15.50;;;2.90;99.90;;;;;;5052016;28;20528;-63
2023/12/08 10:15:11;;;;;;;19.83;14.27;;;2.90;99.90;;;;;;5053271;28;20026;-63
2023/12/08 10:17:51;;;;;;;21.10;15.55;;;3.00;99.90;;;;;;5052311;28;20025;-64
2023/12/08 10:20:19;;;;;;;26.92;14.95;;;3.10;99.90;;;;;;5052972;28;20116;-63
2023/12/08 10:22:47;;;;;;;21.23;14.77;;;3.20;99.90;;;;;;5052279;28;20500;-65
2023/12/08 10:25:16;;;;;;;22.05;15.93;;;3.30;99.90;;;;;;5052490;28;20417;-63
2023/12/08 10:27:42;;;;;;;22.08;16.15;;;3.30;99.90;;;;;;5052394;28;20052;-63
2023/12/08 10:30:09;;;;;;;22.08;15.07;;;3.40;99.90;;;;;;5052582;28;20032;-64
2023/12/08 10:32:34;;;;;;;24.08;15.50;;;3.50;99.90;;;;;;5052321;28;20386;-71
2023/12/08 10:35:00;;;;;;;22.00;15.18;;;3.50;99.90;;;;;;5052441;28;20036;-64
2023/12/08 10:37:26;;;;;;;25.33;15.65;;;3.50;99.90;;;;;;5052407;28;20025;-63
2023/12/08 10:39:51;;;;;;;21.75;15.63;;;3.50;99.90;;;;;;5051912;28;20482;-64
2023/12/08 10:42:17;;;;;;;25.80;15.38;;;3.50;99.90;;;;;;5052042;28;20032;-63
2023/12/08 10:44:45;;;;;;;27.20;17.50;;;3.60;99.90;;;;;;5052200;28;20029;-63
2023/12/08 10:47:12;;;;;;;25.48;16.38;;;3.60;99.90;;;;;;5052712;28;20094;-63
2023/12/08 10:49:39;;;;;;;23.38;15.85;;;3.60;99.90;;;;;;5052141;28;20095;-65
2023/12/08 10:52:06;;;;;;;23.75;16.92;;;3.60;99.90;;;;;;5052572;28;20025;-64
2023/12/08 10:54:32;;;;;;;23.33;16.63;;;3.60;99.90;;;;;;5052448;28;20041;-63
2023/12/08 10:56:58;;;;;;;25.35;16.50;;;3.60;99.90;;;;;;5052076;28;20448;-64
2023/12/08 10:59:25;;;;;;;25.92;17.23;;;3.50;99.90;;;;;;5052132;28;20036;-64
2023/12/08 11:01:52;;;;;;;25.63;17.25;;;3.40;99.90;;;;;;5051571;28;20414;-64
2023/12/08 11:04:22;;;;;;;24.70;16.58;;;3.30;99.90;;;;;;5052433;28;20530;-64
2023/12/08 11:07:02;;;;;;;23.20;16.55;;;3.20;99.90;;;;;;5052130;28;20033;-64
2023/12/08 11:09:31;;;;;;;26.73;17.95;;;3.20;99.90;;;;;;5052396;28;20033;-64
2023/12/08 11:12:03;;;;;;;24.85;17.73;;;3.10;99.90;;;;;;5051705;28;20021;-63
2023/12/08 11:14:40;;;;;;;26.90;17.40;;;3.10;99.90;;;;;;5052371;28;20033;-63
2023/12/08 11:17:19;;;;;;;26.23;17.35;;;3.10;99.90;;;;;;5053903;28;20025;-63
2023/12/08 11:19:46;;;;;;;25.60;17.92;;;3.10;99.90;;;;;;5055615;28;20406;-64
2023/12/08 11:22:12;;;;;;;25.25;17.52;;;3.00;99.90;;;;;;5052693;28;20036;-63
2023/12/08 11:24:40;;;;;;;26.63;18.00;;;3.00;99.90;;;;;;5051936;28;20037;-71
2023/12/08 11:27:27;;;;;;;25.33;18.08;;;3.00;99.90;;;;;;5052309;28;20029;-64
2023/12/08 11:30:00;;;;;;;28.02;18.63;;;3.00;99.90;;;;;;5052111;28;20074;-63
2023/12/08 11:32:48;;;;;;;31.35;19.50;;;2.90;99.90;;;;;;5050985;28;20033;-64
2023/12/08 11:35:17;;;;;;;30.67;19.95;;;2.90;99.90;;;;;;5051795;28;20112;-63
2023/12/08 11:37:45;;;;;;;28.33;19.15;;;2.80;99.90;;;;;;5051542;28;20162;-65
2023/12/08 11:40:11;;;;;;;29.48;19.55;;;2.80;99.90;;;;;;5051845;28;20025;-64
2023/12/08 11:42:38;;;;;;;32.40;19.65;;;2.80;99.90;;;;;;5051826;28;20092;-63
2023/12/08 11:45:07;;;;;;;32.97;19.20;;;2.70;99.90;;;;;;5051725;28;20017;-63
2023/12/08 11:47:35;;;;;;;30.90;19.65;;;2.70;99.90;;;;;;5052004;28;20418;-64
2023/12/08 11:50:03;;;;;;;31.02;20.63;;;2.70;99.90;;;;;;5051683;28;20162;-64
2023/12/08 11:52:31;;;;;;;33.28;21.13;;;2.70;99.90;;;;;;5050720;28;20021;-64
2023/12/08 11:55:12;;;;;;;32.30;21.75;;;2.70;99.90;;;;;;5054110;28;20024;-64
2023/12/08 11:57:51;;;;;;;30.95;19.30;;;2.70;99.90;;;;;;5055530;28;20462;-64
2023/12/08 12:00:19;;;;;;;33.15;22.10;;;2.70;99.90;;;;;;5055490;28;20075;-63
2023/12/08 12:02:49;;;;;;;33.30;21.73;;;2.70;99.90;;;;;;5055001;28;20053;-65
2023/12/08 12:05:15;;;;;;;33.28;21.08;;;2.60;99.90;;;;;;5055277;28;20029;-63
2023/12/08 12:07:45;;;;;;;33.53;20.77;;;2.70;99.90;;;;;;5055140;28;20033;-71
2023/12/08 12:10:11;;;;;;;34.75;22.33;;;2.70;99.90;;;;;;5055239;28;20416;-64
2023/12/08 12:12:42;;;;;;;31.67;20.48;;;2.70;99.90;;;;;;5055075;28;20075;-64
2023/12/08 12:15:10;;;;;;;31.73;20.65;;;2.70;99.90;;;;;;5055305;28;20043;-63
2023/12/08 12:17:37;;;;;;;32.58;21.08;;;2.70;99.90;;;;;;5055366;28;20033;-64
2023/12/08 12:20:03;;;;;;;31.88;20.23;;;2.70;99.90;;;;;;5054909;28;20049;-65
2023/12/08 12:22:29;;;;;;;32.33;20.02;;;2.70;99.90;;;;;;5054664;28;20087;-65
2023/12/08 12:24:55;;;;;;;34.75;21.33;;;2.70;99.90;;;;;;5054203;28;20028;-65
2023/12/08 12:27:20;;;;;;;33.55;21.63;;;2.70;99.90;;;;;;5055034;28;20036;-64
2023/12/08 12:29:46;;;;;;;36.55;21.48;;;2.80;99.90;;;;;;5054444;28;20064;-65
2023/12/08 12:32:12;;;;;;;32.47;20.98;;;2.70;99.90;;;;;;5054799;28;20111;-65